sensor_id;sensor_type;location;lat;lon;timestamp;pressure;altitude;pressure_sealevel;temperature;humidity
32320;BME280;19080;51.750;5.888;2023-07-02T00:02:06;100463.94;;;18.23;100.00
32320;BME280;19080;51.750;5.888;2023-07-02T00:04:32;100434.78;;;18.05;100.00
32320;BME280;19080;51.750;5.888;2023-07-02T00:07:00;100412.56;;;17.98;100.00
32320;BME280;19080;51.750;5.888;2023-07-02T00:09:26;100431.38;;;17.97;100.00
32320;BME280;19080;51.750;5.888;2023-07-02T00:11:53;100407.00;;;17.63;100.00
32320;BME280;19080;51.750;5.888;2023-07-02T00:14:20;100357.78;;;17.22;100.00
32320;BME280;19080;51.750;5.888;2023-07-02T00:16:48;100405.69;;;17.40;100.00
32320;BME280;19080;51.750;5.888;2023-07-02T00:19:14;100444.06;;;17.44;100.00
32320;BME280;19080;51.750;5.888;2023-07-02T00:21:42;100438.84;;;17.36;100.00
32320;BME280;19080;51.750;5.888;2023-07-02T00:24:09;100422.97;;;17.26;100.00
32320;BME280;19080;51.750;5.888;2023-07-02T00:26:37;100423.97;;;17.20;100.00
32320;BME280;19080;51.750;5.888;2023-07-02T00:29:10;100413.31;;;17.17;100.00
32320;BME280;19080;51.750;5.888;2023-07-02T00:31:37;100333.88;;;16.60;100.00
32320;BME280;19080;51.750;5.888;2023-07-02T00:34:04;100436.69;;;17.09;100.00
32320;BME280;19080;51.750;5.888;2023-07-02T00:36:32;100441.16;;;17.10;100.00
32320;BME280;19080;51.750;5.888;2023-07-02T00:38:59;100434.72;;;17.20;100.00
32320;BME280;19080;51.750;5.888;2023-07-02T00:41:27;100441.63;;;17.33;100.00
32320;BME280;19080;51.750;5.888;2023-07-02T00:43:55;100436.94;;;17.43;100.00
32320;BME280;19080;51.750;5.888;2023-07-02T00:46:23;100386.25;;;17.29;100.00
32320;BME280;19080;51.750;5.888;2023-07-02T00:48:53;100475.56;;;17.80;100.00
32320;BME280;19080;51.750;5.888;2023-07-02T00:51:27;100401.97;;;17.47;100.00
32320;BME280;19080;51.750;5.888;2023-07-02T00:53:55;100381.50;;;17.42;100.00
32320;BME280;19080;51.750;5.888;2023-07-02T00:56:23;100397.41;;;17.51;100.00
32320;BME280;19080;51.750;5.888;2023-07-02T00:58:52;100461.81;;;17.97;100.00
32320;BME280;19080;51.750;5.888;2023-07-02T01:01:25;100478.56;;;18.08;100.00
32320;BME280;19080;51.750;5.888;2023-07-02T01:04:12;100479.44;;;18.10;100.00
32320;BME280;19080;51.750;5.888;2023-07-02T01:06:39;100464.38;;;18.03;100.00
32320;BME280;19080;51.750;5.888;2023-07-02T01:09:08;100482.97;;;18.12;100.00
32320;BME280;19080;51.750;5.888;2023-07-02T01:11:40;100391.94;;;17.55;100.00
32320;BME280;19080;51.750;5.888;2023-07-02T01:16:54;100467.03;;;18.03;100.00
32320;BME280;19080;51.750;5.888;2023-07-02T01:22:09;100508.81;;;18.18;100.00
32320;BME280;19080;51.750;5.888;2023-07-02T01:24:39;100375.75;;;17.17;100.00
32320;BME280;19080;51.750;5.888;2023-07-02T01:27:06;100472.34;;;17.15;100.00
32320;BME280;19080;51.750;5.888;2023-07-02T01:29:34;100523.06;;;16.75;100.00
32320;BME280;19080;51.750;5.888;2023-07-02T01:32:04;100535.91;;;16.49;100.00
32320;BME280;19080;51.750;5.888;2023-07-02T01:34:31;100530.13;;;16.13;100.00
32320;BME280;19080;51.750;5.888;2023-07-02T01:36:58;100515.31;;;15.83;100.00
32320;BME280;19080;51.750;5.888;2023-07-02T01:39:24;100508.38;;;15.66;100.00
32320;BME280;19080;51.750;5.888;2023-07-02T01:41:54;100533.47;;;15.58;100.00
32320;BME280;19080;51.750;5.888;2023-07-02T01:44:21;100478.50;;;15.24;100.00
32320;BME280;19080;51.750;5.888;2023-07-02T01:46:48;100459.13;;;15.01;100.00
32320;BME280;19080;51.750;5.888;2023-07-02T01:49:18;100518.53;;;15.33;100.00
32320;BME280;19080;51.750;5.888;2023-07-02T01:51:52;100535.41;;;15.38;100.00
32320;BME280;19080;51.750;5.888;2023-07-02T01:54:20;100447.59;;;14.92;100.00
32320;BME280;19080;51.750;5.888;2023-07-02T01:56:47;100507.03;;;15.22;100.00
32320;BME280;19080;51.750;5.888;2023-07-02T01:59:14;100507.97;;;15.16;100.00
32320;BME280;19080;51.750;5.888;2023-07-02T02:01:41;100507.09;;;15.14;100.00
32320;BME280;19080;51.750;5.888;2023-07-02T02:04:10;100430.88;;;14.72;100.00
32320;BME280;19080;51.750;5.888;2023-07-02T02:06:38;100505.38;;;15.09;100.00
32320;BME280;19080;51.750;5.888;2023-07-02T02:09:06;100508.91;;;15.11;100.00
32320;BME280;19080;51.750;5.888;2023-07-02T02:11:34;100464.72;;;14.70;100.00
32320;BME280;19080;51.750;5.888;2023-07-02T02:14:02;100500.34;;;14.69;100.00
32320;BME280;19080;51.750;5.888;2023-07-02T02:16:29;100461.38;;;14.34;100.00
32320;BME280;19080;51.750;5.888;2023-07-02T02:18:55;100536.00;;;14.65;100.00
32320;BME280;19080;51.750;5.888;2023-07-02T02:21:22;100529.84;;;14.52;100.00
32320;BME280;19080;51.750;5.888;2023-07-02T02:23:49;100531.66;;;14.46;100.00
32320;BME280;19080;51.750;5.888;2023-07-02T02:26:16;100449.16;;;13.88;100.00
32320;BME280;19080;51.750;5.888;2023-07-02T02:28:42;100417.28;;;13.66;100.00
32320;BME280;19080;51.750;5.888;2023-07-02T02:31:09;100419.09;;;13.55;100.00
32320;BME280;19080;51.750;5.888;2023-07-02T02:33:36;100498.06;;;13.93;100.00
32320;BME280;19080;51.750;5.888;2023-07-02T02:36:04;100525.59;;;14.04;100.00
32320;BME280;19080;51.750;5.888;2023-07-02T02:38:31;100500.72;;;13.96;100.00
32320;BME280;19080;51.750;5.888;2023-07-02T02:41:01;100504.25;;;14.04;100.00
32320;BME280;19080;51.750;5.888;2023-07-02T02:43:32;100516.66;;;14.11;100.00
32320;BME280;19080;51.750;5.888;2023-07-02T02:45:59;100533.44;;;14.36;100.00
32320;BME280;19080;51.750;5.888;2023-07-02T02:48:26;100501.50;;;14.19;100.00
32320;BME280;19080;51.750;5.888;2023-07-02T02:50:53;100497.09;;;14.11;100.00
32320;BME280;19080;51.750;5.888;2023-07-02T02:53:19;100499.78;;;14.08;100.00
32320;BME280;19080;51.750;5.888;2023-07-02T02:55:47;100519.34;;;14.11;100.00
32320;BME280;19080;51.750;5.888;2023-07-02T02:58:14;100532.66;;;14.14;100.00
32320;BME280;19080;51.750;5.888;2023-07-02T03:00:40;100483.94;;;13.77;100.00
32320;BME280;19080;51.750;5.888;2023-07-02T03:03:12;100519.41;;;13.91;100.00
32320;BME280;19080;51.750;5.888;2023-07-02T03:05:40;100484.81;;;13.75;100.00
32320;BME280;19080;51.750;5.888;2023-07-02T03:08:07;100508.81;;;13.79;100.00
32320;BME280;19080;51.750;5.888;2023-07-02T03:10:34;100505.28;;;13.76;100.00
32320;BME280;19080;51.750;5.888;2023-07-02T03:13:00;100554.06;;;14.02;100.00
32320;BME280;19080;51.750;5.888;2023-07-02T03:15:27;100546.09;;;13.94;100.00
32320;BME280;19080;51.750;5.888;2023-07-02T03:17:54;100557.59;;;14.07;100.00
32320;BME280;19080;51.750;5.888;2023-07-02T03:20:21;100554.06;;;14.02;100.00
32320;BME280;19080;51.750;5.888;2023-07-02T03:22:47;100539.91;;;13.85;100.00
32320;BME280;19080;51.750;5.888;2023-07-02T03:25:15;100561.19;;;14.03;100.00
32320;BME280;19080;51.750;5.888;2023-07-02T03:27:41;100538.09;;;13.90;100.00
32320;BME280;19080;51.750;5.888;2023-07-02T03:30:08;100543.41;;;13.99;100.00
32320;BME280;19080;51.750;5.888;2023-07-02T03:32:35;100546.94;;;14.04;100.00
32320;BME280;19080;51.750;5.888;2023-07-02T03:35:02;100560.25;;;14.13;100.00
32320;BME280;19080;51.750;5.888;2023-07-02T03:37:29;100550.47;;;14.08;100.00
32320;BME280;19080;51.750;5.888;2023-07-02T03:39:55;100564.69;;;14.13;100.00
32320;BME280;19080;51.750;5.888;2023-07-02T03:42:22;100559.38;;;14.11;100.00
32320;BME280;19080;51.750;5.888;2023-07-02T03:44:49;100557.56;;;14.19;100.00
32320;BME280;19080;51.750;5.888;2023-07-02T03:47:15;100588.63;;;14.46;100.00
32320;BME280;19080;51.750;5.888;2023-07-02T03:49:45;100562.81;;;14.41;100.00
32320;BME280;19080;51.750;5.888;2023-07-02T03:52:12;100559.22;;;14.48;100.00
32320;BME280;19080;51.750;5.888;2023-07-02T03:54:39;100590.28;;;14.70;100.00
32320;BME280;19080;51.750;5.888;2023-07-02T03:57:06;100593.81;;;14.75;100.00
32320;BME280;19080;51.750;5.888;2023-07-02T03:59:34;100588.41;;;14.84;100.00
32320;BME280;19080;51.750;5.888;2023-07-02T04:02:00;100543.09;;;14.69;100.00
32320;BME280;19080;51.750;5.888;2023-07-02T04:04:27;100571.44;;;14.91;100.00
32320;BME280;19080;51.750;5.888;2023-07-02T04:06:54;100589.13;;;15.08;100.00
32320;BME280;19080;51.750;5.888;2023-07-02T04:09:21;100520.78;;;14.75;100.00
32320;BME280;19080;51.750;5.888;2023-07-02T04:11:47;100601.44;;;15.30;100.00
32320;BME280;19080;51.750;5.888;2023-07-02T04:14:14;100586.38;;;15.20;100.00
32320;BME280;19080;51.750;5.888;2023-07-02T04:16:43;100550.84;;;15.04;100.00
32320;BME280;19080;51.750;5.888;2023-07-02T04:19:11;100612.03;;;15.45;100.00
32320;BME280;19080;51.750;5.888;2023-07-02T04:21:38;100599.53;;;15.47;100.00
32320;BME280;19080;51.750;5.888;2023-07-02T04:24:05;100576.47;;;15.31;100.00
32320;BME280;19080;51.750;5.888;2023-07-02T04:26:32;100525.91;;;15.02;100.00
32320;BME280;19080;51.750;5.888;2023-07-02T04:29:20;100603.19;;;15.37;100.00
32320;BME280;19080;51.750;5.888;2023-07-02T04:31:46;100578.28;;;15.29;100.00
32320;BME280;19080;51.750;5.888;2023-07-02T04:34:13;100604.03;;;15.39;100.00
32320;BME280;19080;51.750;5.888;2023-07-02T04:36:40;100622.75;;;15.42;100.00
32320;BME280;19080;51.750;5.888;2023-07-02T04:39:08;100623.59;;;15.49;100.00
32320;BME280;19080;51.750;5.888;2023-07-02T04:41:35;100606.69;;;15.42;100.00
32320;BME280;19080;51.750;5.888;2023-07-02T04:44:01;100617.31;;;15.57;100.00
32320;BME280;19080;51.750;5.888;2023-07-02T04:46:28;100605.72;;;15.57;100.00
32320;BME280;19080;51.750;5.888;2023-07-02T04:48:55;100566.59;;;15.39;100.00
32320;BME280;19080;51.750;5.888;2023-07-02T04:51:22;100599.44;;;15.59;100.00
32320;BME280;19080;51.750;5.888;2023-07-02T04:53:48;100633.06;;;15.85;100.00
32320;BME280;19080;51.750;5.888;2023-07-02T04:56:15;100620.56;;;15.87;100.00
32320;BME280;19080;51.750;5.888;2023-07-02T04:58:42;100613.34;;;15.95;100.00
32320;BME280;19080;51.750;5.888;2023-07-02T05:01:08;100631.03;;;16.08;100.00
32320;BME280;19080;51.750;5.888;2023-07-02T05:03:37;100605.28;;;15.97;100.00
32320;BME280;19080;51.750;5.888;2023-07-02T05:06:04;100630.00;;;16.23;100.00
32320;BME280;19080;51.750;5.888;2023-07-02T05:08:31;100603.34;;;16.11;100.00
32320;BME280;19080;51.750;5.888;2023-07-02T05:10:57;100622.81;;;16.25;100.00
32320;BME280;19080;51.750;5.888;2023-07-02T05:13:24;100542.00;;;15.91;100.00
32320;BME280;19080;51.750;5.888;2023-07-02T05:15:51;100614.47;;;16.51;100.00
32320;BME280;19080;51.750;5.888;2023-07-02T05:18:17;100616.16;;;16.58;100.00
32320;BME280;19080;51.750;5.888;2023-07-02T05:20:44;100557.44;;;16.43;100.00
32320;BME280;19080;51.750;5.888;2023-07-02T05:23:11;100652.19;;;17.05;100.00
32320;BME280;19080;51.750;5.888;2023-07-02T05:25:38;100624.50;;;17.03;100.00
32320;BME280;19080;51.750;5.888;2023-07-02T05:28:04;100656.31;;;17.29;100.00
32320;BME280;19080;51.750;5.888;2023-07-02T05:30:31;100602.94;;;17.12;100.00
32320;BME280;19080;51.750;5.888;2023-07-02T05:32:58;100677.34;;;17.54;100.00
32320;BME280;19080;51.750;5.888;2023-07-02T05:35:24;100633.66;;;17.45;100.00
32320;BME280;19080;51.750;5.888;2023-07-02T05:37:51;100657.53;;;17.62;100.00
32320;BME280;19080;51.750;5.888;2023-07-02T05:40:18;100649.44;;;17.66;100.00
32320;BME280;19080;51.750;5.888;2023-07-02T05:42:44;100656.34;;;17.81;100.00
32320;BME280;19080;51.750;5.888;2023-07-02T05:45:11;100672.81;;;18.10;100.00
32320;BME280;19080;51.750;5.888;2023-07-02T05:47:38;100652.09;;;18.18;100.00
32320;BME280;19080;51.750;5.888;2023-07-02T05:50:07;100651.88;;;18.29;100.00
32320;BME280;19080;51.750;5.888;2023-07-02T05:52:34;100590.59;;;18.03;100.00
32320;BME280;19080;51.750;5.888;2023-07-02T05:55:00;100665.19;;;18.35;100.00
32320;BME280;19080;51.750;5.888;2023-07-02T05:57:27;100588.88;;;17.99;100.00
32320;BME280;19080;51.750;5.888;2023-07-02T05:59:54;100673.91;;;18.48;100.00
32320;BME280;19080;51.750;5.888;2023-07-02T06:02:20;100675.59;;;18.52;100.00
32320;BME280;19080;51.750;5.888;2023-07-02T06:04:47;100668.53;;;18.48;100.00
32320;BME280;19080;51.750;5.888;2023-07-02T06:07:14;100618.69;;;18.32;100.00
32320;BME280;19080;51.750;5.888;2023-07-02T06:09:41;100698.66;;;18.67;100.00
32320;BME280;19080;51.750;5.888;2023-07-02T06:12:09;100689.75;;;18.63;100.00
32320;BME280;19080;51.750;5.888;2023-07-02T06:14:36;100695.06;;;18.66;100.00
32320;BME280;19080;51.750;5.888;2023-07-02T06:17:03;100635.53;;;18.40;100.00
32320;BME280;19080;51.750;5.888;2023-07-02T06:19:33;100676.09;;;18.74;100.00
32320;BME280;19080;51.750;5.888;2023-07-02T06:21:59;100676.09;;;18.74;100.00
32320;BME280;19080;51.750;5.888;2023-07-02T06:24:26;100667.09;;;18.75;100.00
32320;BME280;19080;51.750;5.888;2023-07-02T06:26:53;100661.41;;;18.90;100.00
32320;BME280;19080;51.750;5.888;2023-07-02T06:29:21;100685.13;;;19.10;100.00
32320;BME280;19080;51.750;5.888;2023-07-02T06:31:47;100684.94;;;19.19;100.00
32320;BME280;19080;51.750;5.888;2023-07-02T06:34:14;100687.09;;;19.42;100.00
32320;BME280;19080;51.750;5.888;2023-07-02T06:36:41;100715.75;;;19.83;100.00
32320;BME280;19080;51.750;5.888;2023-07-02T06:39:08;100657.56;;;19.39;100.00
32320;BME280;19080;51.750;5.888;2023-07-02T06:41:36;100722.97;;;19.81;100.00
32320;BME280;19080;51.750;5.888;2023-07-02T06:44:02;100700.38;;;19.87;100.00
32320;BME280;19080;51.750;5.888;2023-07-02T06:46:30;100729.38;;;20.12;100.00
32320;BME280;19080;51.750;5.888;2023-07-02T06:48:56;100661.78;;;19.86;99.23
32320;BME280;19080;51.750;5.888;2023-07-02T06:51:23;100714.44;;;20.33;98.78
32320;BME280;19080;51.750;5.888;2023-07-02T06:53:52;100695.97;;;20.18;95.90
32320;BME280;19080;51.750;5.888;2023-07-02T06:56:19;100724.91;;;20.45;95.55
32320;BME280;19080;51.750;5.888;2023-07-02T06:58:47;100701.84;;;20.34;99.04
32320;BME280;19080;51.750;5.888;2023-07-02T07:01:14;100705.91;;;20.50;100.00
32320;BME280;19080;51.750;5.888;2023-07-02T07:03:41;100719.25;;;20.86;92.94
32320;BME280;19080;51.750;5.888;2023-07-02T07:06:07;100731.44;;;20.69;88.51
32320;BME280;19080;51.750;5.888;2023-07-02T07:08:37;100728.44;;;20.80;91.84
32320;BME280;19080;51.750;5.888;2023-07-02T07:11:04;100743.63;;;20.83;83.64
32320;BME280;19080;51.750;5.888;2023-07-02T07:13:32;100733.47;;;20.61;90.52
32320;BME280;19080;51.750;5.888;2023-07-02T07:15:59;100726.47;;;20.54;87.83
32320;BME280;19080;51.750;5.888;2023-07-02T07:18:25;100726.09;;;20.68;91.28
32320;BME280;19080;51.750;5.888;2023-07-02T07:20:55;100757.38;;;20.75;86.11
32320;BME280;19080;51.750;5.888;2023-07-02T07:23:22;100678.00;;;20.19;90.05
32320;BME280;19080;51.750;5.888;2023-07-02T07:25:48;100738.13;;;20.56;93.71
32320;BME280;19080;51.750;5.888;2023-07-02T07:28:15;100763.91;;;20.66;88.67
32320;BME280;19080;51.750;5.888;2023-07-02T07:30:44;100750.38;;;20.34;90.92
32320;BME280;19080;51.750;5.888;2023-07-02T07:33:11;100758.75;;;20.57;87.34
32320;BME280;19080;51.750;5.888;2023-07-02T07:35:37;100718.81;;;20.39;82.60
32320;BME280;19080;51.750;5.888;2023-07-02T07:38:04;100656.69;;;20.09;76.41
32320;BME280;19080;51.750;5.888;2023-07-02T07:40:30;100761.03;;;20.72;76.50
32320;BME280;19080;51.750;5.888;2023-07-02T07:42:57;100751.56;;;20.58;79.50
32320;BME280;19080;51.750;5.888;2023-07-02T07:45:24;100780.94;;;20.68;79.01
32320;BME280;19080;51.750;5.888;2023-07-02T07:47:51;100762.75;;;20.75;78.26
32320;BME280;19080;51.750;5.888;2023-07-02T07:50:17;100742.44;;;20.93;82.55
32320;BME280;19080;51.750;5.888;2023-07-02T07:52:44;100766.97;;;21.15;76.86
32320;BME280;19080;51.750;5.888;2023-07-02T07:55:11;100765.78;;;21.26;68.98
32320;BME280;19080;51.750;5.888;2023-07-02T07:57:37;100782.25;;;20.85;71.96
32320;BME280;19080;51.750;5.888;2023-07-02T08:00:05;100680.72;;;20.17;75.36
32320;BME280;19080;51.750;5.888;2023-07-02T08:02:47;100746.03;;;20.93;77.05
32320;BME280;19080;51.750;5.888;2023-07-02T08:05:14;100758.41;;;21.31;78.78
32320;BME280;19080;51.750;5.888;2023-07-02T08:07:41;100752.25;;;21.56;73.49
32320;BME280;19080;51.750;5.888;2023-07-02T08:10:08;100774.09;;;21.48;73.45
32320;BME280;19080;51.750;5.888;2023-07-02T08:12:35;100769.81;;;21.70;73.23
32320;BME280;19080;51.750;5.888;2023-07-02T08:15:02;100781.94;;;22.13;66.04
32320;BME280;19080;51.750;5.888;2023-07-02T08:17:29;100772.22;;;22.07;62.33
32320;BME280;19080;51.750;5.888;2023-07-02T08:19:57;100782.84;;;22.14;62.73
32320;BME280;19080;51.750;5.888;2023-07-02T08:22:24;100772.78;;;21.61;63.66
32320;BME280;19080;51.750;5.888;2023-07-02T08:24:51;100792.72;;;21.57;64.47
32320;BME280;19080;51.750;5.888;2023-07-02T08:27:17;100788.50;;;21.49;60.93
32320;BME280;19080;51.750;5.888;2023-07-02T08:29:47;100667.47;;;20.43;58.26
32320;BME280;19080;51.750;5.888;2023-07-02T08:32:14;100801.00;;;21.22;59.50
32320;BME280;19080;51.750;5.888;2023-07-02T08:34:41;100609.97;;;20.43;59.99
32320;BME280;19080;51.750;5.888;2023-07-02T08:37:08;100786.16;;;21.94;59.28
32320;BME280;19080;51.750;5.888;2023-07-02T08:39:35;100795.19;;;22.72;57.89
32320;BME280;19080;51.750;5.888;2023-07-02T08:42:04;100783.41;;;22.99;53.05
32320;BME280;19080;51.750;5.888;2023-07-02T08:44:30;100792.19;;;23.06;48.10
32320;BME280;19080;51.750;5.888;2023-07-02T08:49:24;100818.56;;;22.50;50.79
32320;BME280;19080;51.750;5.888;2023-07-02T08:51:51;100814.63;;;22.05;52.27
32320;BME280;19080;51.750;5.888;2023-07-02T08:54:18;100820.41;;;21.93;52.08
32320;BME280;19080;51.750;5.888;2023-07-02T08:56:45;100788.22;;;21.58;51.81
32320;BME280;19080;51.750;5.888;2023-07-02T08:59:12;100696.66;;;20.90;52.53
32320;BME280;19080;51.750;5.888;2023-07-02T09:01:47;100804.13;;;21.67;54.25
32320;BME280;19080;51.750;5.888;2023-07-02T09:04:21;100812.03;;;22.55;54.09
32320;BME280;19080;51.750;5.888;2023-07-02T09:07:10;100806.22;;;23.17;51.47
32320;BME280;19080;51.750;5.888;2023-07-02T09:09:48;100816.09;;;23.18;50.66
32320;BME280;19080;51.750;5.888;2023-07-02T09:12:29;100800.41;;;22.78;48.24
32320;BME280;19080;51.750;5.888;2023-07-02T09:14:59;100828.09;;;22.35;50.23
32320;BME280;19080;51.750;5.888;2023-07-02T09:17:34;100749.06;;;21.71;50.54
32320;BME280;19080;51.750;5.888;2023-07-02T09:20:02;100794.91;;;22.30;52.34
32320;BME280;19080;51.750;5.888;2023-07-02T09:22:36;100821.25;;;23.01;49.82
32320;BME280;19080;51.750;5.888;2023-07-02T09:25:05;100816.13;;;23.42;49.25
32320;BME280;19080;51.750;5.888;2023-07-02T09:27:40;100811.69;;;23.86;48.96
32320;BME280;19080;51.750;5.888;2023-07-02T09:30:13;100804.66;;;24.04;46.17
32320;BME280;19080;51.750;5.888;2023-07-02T09:32:40;100823.44;;;24.08;47.89
32320;BME280;19080;51.750;5.888;2023-07-02T09:35:07;100800.59;;;24.36;46.84
32320;BME280;19080;51.750;5.888;2023-07-02T09:37:34;100810.06;;;24.04;47.31
32320;BME280;19080;51.750;5.888;2023-07-02T09:40:01;100762.75;;;23.20;46.85
32320;BME280;19080;51.750;5.888;2023-07-02T09:42:33;100744.38;;;22.82;48.28
32320;BME280;19080;51.750;5.888;2023-07-02T09:45:02;100776.50;;;22.91;50.50
32320;BME280;19080;51.750;5.888;2023-07-02T09:47:29;100812.41;;;23.21;50.68
32320;BME280;19080;51.750;5.888;2023-07-02T09:50:05;100808.66;;;23.00;49.77
32320;BME280;19080;51.750;5.888;2023-07-02T09:52:33;100793.97;;;23.30;51.16
32320;BME280;19080;51.750;5.888;2023-07-02T09:55:01;100787.34;;;23.62;48.84
32320;BME280;19080;51.750;5.888;2023-07-02T09:57:27;100803.03;;;23.53;48.62
32320;BME280;19080;51.750;5.888;2023-07-02T10:00:03;100809.22;;;22.85;48.63
32320;BME280;19080;51.750;5.888;2023-07-02T10:02:31;100740.25;;;21.92;50.44
32320;BME280;19080;51.750;5.888;2023-07-02T10:04:59;100816.50;;;22.56;49.83
32320;BME280;19080;51.750;5.888;2023-07-02T10:07:30;100797.25;;;23.15;50.88
32320;BME280;19080;51.750;5.888;2023-07-02T10:09:58;100817.88;;;24.33;47.22
32320;BME280;19080;51.750;5.888;2023-07-02T10:12:29;100833.78;;;23.98;48.17
32320;BME280;19080;51.750;5.888;2023-07-02T10:14:57;100818.69;;;23.21;48.21
32320;BME280;19080;51.750;5.888;2023-07-02T10:17:29;100765.31;;;22.25;49.83
32320;BME280;19080;51.750;5.888;2023-07-02T10:19:59;100847.81;;;22.63;49.88
32320;BME280;19080;51.750;5.888;2023-07-02T10:22:27;100816.13;;;22.42;51.72
32320;BME280;19080;51.750;5.888;2023-07-02T10:24:58;100833.03;;;22.49;51.91
32320;BME280;19080;51.750;5.888;2023-07-02T10:27:39;100775.13;;;22.28;50.94
32320;BME280;19080;51.750;5.888;2023-07-02T10:30:07;100822.75;;;22.58;49.49
32320;BME280;19080;51.750;5.888;2023-07-02T10:32:36;100822.13;;;23.01;49.30
32320;BME280;19080;51.750;5.888;2023-07-02T10:35:17;100845.66;;;24.18;49.27
32320;BME280;19080;51.750;5.888;2023-07-02T10:37:44;100835.56;;;25.06;47.26
32320;BME280;19080;51.750;5.888;2023-07-02T10:40:12;100757.00;;;24.40;44.36
32320;BME280;19080;51.750;5.888;2023-07-02T10:42:50;100774.13;;;25.03;44.58
32320;BME280;19080;51.750;5.888;2023-07-02T10:45:18;100765.06;;;25.60;44.80
32320;BME280;19080;51.750;5.888;2023-07-02T10:47:45;100774.25;;;26.49;42.43
32320;BME280;19080;51.750;5.888;2023-07-02T10:50:16;100835.81;;;26.51;39.96
32320;BME280;19080;51.750;5.888;2023-07-02T10:52:43;100811.81;;;26.59;40.68
32320;BME280;19080;51.750;5.888;2023-07-02T10:55:09;100819.44;;;26.70;39.97
32320;BME280;19080;51.750;5.888;2023-07-02T10:57:36;100770.50;;;26.15;38.33
32320;BME280;19080;51.750;5.888;2023-07-02T11:00:06;100835.81;;;25.59;39.15
32320;BME280;19080;51.750;5.888;2023-07-02T11:02:37;100780.34;;;24.64;39.87
32320;BME280;19080;51.750;5.888;2023-07-02T11:05:05;100849.06;;;24.45;41.11
32320;BME280;19080;51.750;5.888;2023-07-02T11:07:33;100847.00;;;23.84;42.39
32320;BME280;19080;51.750;5.888;2023-07-02T11:10:00;100792.78;;;24.28;43.66
32320;BME280;19080;51.750;5.888;2023-07-02T11:12:30;100824.09;;;24.99;43.42
32320;BME280;19080;51.750;5.888;2023-07-02T11:15:08;100775.44;;;25.52;41.63
32320;BME280;19080;51.750;5.888;2023-07-02T11:17:35;100833.91;;;25.61;42.17
32320;BME280;19080;51.750;5.888;2023-07-02T11:20:02;100811.09;;;25.65;40.23
32320;BME280;19080;51.750;5.888;2023-07-02T11:22:35;100778.72;;;24.60;41.29
32320;BME280;19080;51.750;5.888;2023-07-02T11:25:17;100841.72;;;24.03;42.50
32320;BME280;19080;51.750;5.888;2023-07-02T11:27:44;100849.06;;;25.07;42.87
32320;BME280;19080;51.750;5.888;2023-07-02T11:30:12;100841.53;;;26.09;41.69
32320;BME280;19080;51.750;5.888;2023-07-02T11:32:53;100841.13;;;26.89;39.93
32320;BME280;19080;51.750;5.888;2023-07-02T11:35:21;100837.06;;;27.48;39.04
32320;BME280;19080;51.750;5.888;2023-07-02T11:37:48;100847.53;;;28.04;38.93
32320;BME280;19080;51.750;5.888;2023-07-02T11:40:19;100731.28;;;27.06;37.92
32320;BME280;19080;51.750;5.888;2023-07-02T11:42:47;100862.66;;;27.78;38.51
32320;BME280;19080;51.750;5.888;2023-07-02T11:45:14;100829.69;;;26.65;39.18
32320;BME280;19080;51.750;5.888;2023-07-02T11:47:41;100834.91;;;26.15;40.00
32320;BME280;19080;51.750;5.888;2023-07-02T11:50:08;100840.59;;;27.00;40.09
32320;BME280;19080;51.750;5.888;2023-07-02T11:52:51;100847.00;;;27.66;39.45
32320;BME280;19080;51.750;5.888;2023-07-02T11:55:18;100748.47;;;26.73;38.73
32320;BME280;19080;51.750;5.888;2023-07-02T11:57:45;100838.00;;;27.80;37.84
32320;BME280;19080;51.750;5.888;2023-07-02T12:00:13;100827.63;;;28.18;37.59
32320;BME280;19080;51.750;5.888;2023-07-02T12:02:42;100824.28;;;28.74;37.35
32320;BME280;19080;51.750;5.888;2023-07-02T12:05:09;100847.22;;;28.72;36.72
32320;BME280;19080;51.750;5.888;2023-07-02T12:07:38;100786.53;;;27.74;36.71
32320;BME280;19080;51.750;5.888;2023-07-02T12:10:07;100831.16;;;27.40;39.02
32320;BME280;19080;51.750;5.888;2023-07-02T12:12:34;100852.78;;;27.60;37.19
32320;BME280;19080;51.750;5.888;2023-07-02T12:15:00;100796.44;;;27.43;36.04
32320;BME280;19080;51.750;5.888;2023-07-02T12:17:27;100784.06;;;27.20;36.93
32320;BME280;19080;51.750;5.888;2023-07-02T12:19:54;100826.78;;;26.68;38.40
32320;BME280;19080;51.750;5.888;2023-07-02T12:22:20;100845.59;;;26.55;39.25
32320;BME280;19080;51.750;5.888;2023-07-02T12:24:48;100835.34;;;25.70;39.02
32320;BME280;19080;51.750;5.888;2023-07-02T12:27:16;100837.88;;;25.54;38.17
32320;BME280;19080;51.750;5.888;2023-07-02T12:29:43;100833.31;;;26.11;38.27
32320;BME280;19080;51.750;5.888;2023-07-02T12:32:10;100844.75;;;25.42;38.08
32320;BME280;19080;51.750;5.888;2023-07-02T12:34:36;100858.88;;;24.69;38.52
32320;BME280;19080;51.750;5.888;2023-07-02T12:37:03;100839.00;;;23.81;39.92
32320;BME280;19080;51.750;5.888;2023-07-02T12:39:30;100826.47;;;23.55;41.22
32320;BME280;19080;51.750;5.888;2023-07-02T12:41:57;100834.25;;;24.94;40.69
32320;BME280;19080;51.750;5.888;2023-07-02T12:44:24;100837.28;;;26.76;37.34
32320;BME280;19080;51.750;5.888;2023-07-02T12:46:51;100861.41;;;27.84;36.24
32320;BME280;19080;51.750;5.888;2023-07-02T12:49:18;100855.53;;;27.60;34.63
32320;BME280;19080;51.750;5.888;2023-07-02T12:51:44;100840.47;;;26.31;36.96
32320;BME280;19080;51.750;5.888;2023-07-02T12:54:11;100838.66;;;25.76;38.47
32320;BME280;19080;51.750;5.888;2023-07-02T12:56:38;100819.81;;;26.45;37.01
32320;BME280;19080;51.750;5.888;2023-07-02T12:59:04;100842.09;;;25.99;36.12